createdAt,value
2023-05-31T00:02:16.047Z,17.77
2023-05-31T00:04:44.874Z,17.93
2023-05-31T00:07:12.416Z,17.71
2023-05-31T00:09:39.850Z,17.63
2023-05-31T00:12:08.277Z,17.27
2023-05-31T00:14:35.726Z,17.82
2023-05-31T00:17:30.992Z,17.80
2023-05-31T00:19:51.953Z,17.42
2023-05-31T00:22:19.391Z,16.26
2023-05-31T00:24:46.864Z,16.25
2023-05-31T00:27:14.377Z,16.23
2023-05-31T00:29:41.968Z,16.83
2023-05-31T00:32:09.474Z,16.73
2023-05-31T00:34:37.461Z,17.20
2023-05-31T00:37:07.017Z,16.81
2023-05-31T00:39:34.476Z,16.63
2023-05-31T00:42:02.025Z,16.74
2023-05-31T00:44:29.475Z,17.06
2023-05-31T00:46:57.049Z,17.13
2023-05-31T00:49:24.523Z,17.31
2023-05-31T00:51:52.184Z,15.99
2023-05-31T00:54:21.093Z,16.08
2023-05-31T00:56:48.822Z,16.03
2023-05-31T00:59:17.740Z,16.62
2023-05-31T01:01:46.229Z,16.58
2023-05-31T01:04:14.130Z,16.98
2023-05-31T01:06:41.564Z,16.56
2023-05-31T01:09:09.539Z,16.12
2023-05-31T01:11:59.656Z,16.58
2023-05-31T01:14:38.234Z,16.53
2023-05-31T01:17:15.129Z,16.50
2023-05-31T01:19:48.952Z,16.84
2023-05-31T01:40:47.418Z,16.61
2023-05-31T01:43:15.234Z,16.73
2023-05-31T01:45:43.072Z,16.48
2023-05-31T01:48:12.140Z,16.21
2023-05-31T01:50:41.196Z,16.65
2023-05-31T01:53:08.904Z,16.69
2023-05-31T01:55:36.454Z,16.30
2023-05-31T01:58:06.901Z,16.39
2023-05-31T02:00:37.472Z,16.46
2023-05-31T02:03:06.653Z,15.77
2023-05-31T02:05:35.271Z,16.23
2023-05-31T02:08:03.553Z,15.38
2023-05-31T02:10:31.027Z,16.34
2023-05-31T02:12:58.456Z,16.64
2023-05-31T02:15:27.224Z,16.05
2023-05-31T02:17:55.036Z,16.16
2023-05-31T02:20:22.549Z,16.01
2023-05-31T02:22:49.997Z,16.10
2023-05-31T02:25:17.502Z,15.69
2023-05-31T02:27:45.166Z,15.95
2023-05-31T02:30:13.395Z,15.80
2023-05-31T02:32:42.634Z,15.74
2023-05-31T02:35:12.132Z,15.65
2023-05-31T02:37:41.324Z,15.73
2023-05-31T02:40:09.829Z,15.50
2023-05-31T02:42:38.346Z,15.06
2023-05-31T02:45:07.253Z,15.28
2023-05-31T02:47:35.045Z,15.16
2023-05-31T02:50:03.968Z,14.85
2023-05-31T02:52:31.482Z,14.98
2023-05-31T02:54:59.010Z,15.32
2023-05-31T02:57:26.451Z,14.92
2023-05-31T02:59:57.583Z,15.52
2023-05-31T03:02:25.206Z,15.13
2023-05-31T03:04:53.420Z,14.38
2023-05-31T03:07:22.150Z,15.40
2023-05-31T03:09:49.565Z,15.54
2023-05-31T03:12:16.971Z,15.85
2023-05-31T03:14:44.501Z,15.81
2023-05-31T03:17:12.019Z,15.63
2023-05-31T03:19:39.605Z,15.51
2023-05-31T03:22:07.162Z,15.40
2023-05-31T03:24:36.219Z,14.91
2023-05-31T03:27:04.107Z,15.59
2023-05-31T03:29:31.654Z,15.48
2023-05-31T03:31:59.201Z,14.62
2023-05-31T03:34:27.088Z,13.94
2023-05-31T03:36:54.539Z,14.92
2023-05-31T03:39:21.979Z,15.71
2023-05-31T03:41:50.747Z,16.23
2023-05-31T03:44:18.236Z,16.81
2023-05-31T03:46:45.658Z,17.56
2023-05-31T03:49:13.069Z,18.15
2023-05-31T03:51:40.945Z,18.84
2023-05-31T03:54:08.426Z,19.22
2023-05-31T03:56:35.869Z,20.07
2023-05-31T03:59:05.043Z,22.50
2023-05-31T04:01:33.617Z,24.96
2023-05-31T04:04:01.355Z,25.88
2023-05-31T04:06:29.881Z,26.95
2023-05-31T04:08:57.368Z,27.60
2023-05-31T04:11:25.092Z,29.08
2023-05-31T04:13:52.497Z,29.66
2023-05-31T04:16:21.261Z,30.50
2023-05-31T04:18:48.765Z,31.45
2023-05-31T04:21:16.430Z,30.83
2023-05-31T04:23:44.254Z,31.64
2023-05-31T04:26:17.727Z,32.08
2023-05-31T04:28:45.690Z,32.62
2023-05-31T04:31:13.455Z,32.66
2023-05-31T04:33:43.243Z,31.61
2023-05-31T04:36:10.803Z,32.10
2023-05-31T04:38:38.290Z,30.03
2023-05-31T04:41:05.921Z,31.13
2023-05-31T04:43:33.376Z,31.24
2023-05-31T04:46:01.671Z,30.12
2023-05-31T04:48:29.739Z,26.66
2023-05-31T04:51:00.284Z,23.37
2023-05-31T04:53:27.988Z,21.96
2023-05-31T04:55:55.566Z,22.14
2023-05-31T04:58:23.024Z,23.15
2023-05-31T05:00:50.475Z,22.30
2023-05-31T05:03:19.412Z,22.01
2023-05-31T05:05:47.563Z,21.93
2023-05-31T05:08:16.343Z,22.05
2023-05-31T05:10:43.788Z,21.55
2023-05-31T05:13:11.374Z,21.23
2023-05-31T05:15:38.826Z,20.56
2023-05-31T05:18:06.950Z,21.18
2023-05-31T05:20:34.500Z,20.78
2023-05-31T05:23:07.855Z,21.05
2023-05-31T05:25:37.375Z,24.34
2023-05-31T05:28:04.882Z,24.38
2023-05-31T05:30:33.430Z,23.13
2023-05-31T05:33:00.988Z,22.00
2023-05-31T05:35:28.539Z,22.09
2023-05-31T05:37:56.380Z,21.05
2023-05-31T05:40:23.807Z,20.96
2023-05-31T05:42:52.554Z,21.00
2023-05-31T05:45:20.101Z,19.98
2023-05-31T05:47:50.075Z,19.90
2023-05-31T05:50:17.720Z,20.30
2023-05-31T05:52:45.163Z,19.33
2023-05-31T05:55:12.946Z,20.31
2023-05-31T05:57:40.440Z,20.07
2023-05-31T06:00:12.094Z,20.88
2023-05-31T06:02:39.971Z,20.23
2023-05-31T06:05:08.176Z,21.09
2023-05-31T06:07:35.677Z,20.64
2023-05-31T06:10:04.048Z,20.44
2023-05-31T06:12:31.674Z,20.04
2023-05-31T06:14:59.209Z,19.93
2023-05-31T06:17:27.988Z,20.42
2023-05-31T06:19:55.421Z,19.14
2023-05-31T06:22:22.856Z,20.33
2023-05-31T06:24:50.552Z,20.71
2023-05-31T06:27:18.018Z,20.36
2023-05-31T06:29:45.465Z,20.59
2023-05-31T06:32:12.959Z,20.97
2023-05-31T06:34:41.773Z,22.17
2023-05-31T06:37:09.882Z,22.34
2023-05-31T06:39:37.310Z,23.33
2023-05-31T06:42:06.368Z,25.77
2023-05-31T06:44:38.376Z,24.50
2023-05-31T06:47:11.926Z,22.61
2023-05-31T06:49:39.402Z,23.07
2023-05-31T06:52:08.487Z,22.22
2023-05-31T06:54:37.556Z,21.94
2023-05-31T06:57:06.422Z,21.43
2023-05-31T06:59:34.104Z,21.28
2023-05-31T07:02:01.542Z,21.57
2023-05-31T07:04:28.984Z,21.52
2023-05-31T07:06:56.827Z,21.61
2023-05-31T07:09:25.627Z,22.03
2023-05-31T07:11:53.177Z,22.60
2023-05-31T07:14:20.681Z,22.67
2023-05-31T07:16:48.125Z,21.94
2023-05-31T07:19:15.668Z,21.96
2023-05-31T07:21:43.128Z,21.76
2023-05-31T07:24:11.284Z,22.24
2023-05-31T07:26:40.088Z,22.42
2023-05-31T07:29:07.579Z,22.35
2023-05-31T07:31:35.055Z,22.27
2023-05-31T07:34:02.501Z,22.52
2023-05-31T07:36:30.153Z,22.74
2023-05-31T07:38:57.615Z,22.87
2023-05-31T07:41:25.102Z,22.29
2023-05-31T07:43:56.034Z,21.76
2023-05-31T07:46:23.533Z,21.49
2023-05-31T07:48:50.995Z,21.62
2023-05-31T07:51:18.628Z,21.00
2023-05-31T07:53:46.328Z,22.01
2023-05-31T07:56:13.926Z,22.79
2023-05-31T07:58:41.377Z,22.77
2023-05-31T08:01:10.199Z,22.83
2023-05-31T08:03:37.677Z,23.08
2023-05-31T08:06:05.275Z,22.71
2023-05-31T08:08:35.022Z,20.99
2023-05-31T08:11:02.799Z,20.48
2023-05-31T08:13:30.655Z,21.51
2023-05-31T08:15:58.125Z,21.24
2023-05-31T08:18:26.889Z,22.01
2023-05-31T08:20:54.421Z,22.50
2023-05-31T08:23:22.573Z,22.63
2023-05-31T08:25:52.101Z,22.27
2023-05-31T08:28:19.636Z,21.74
2023-05-31T08:30:47.321Z,21.78
2023-05-31T08:33:14.869Z,22.19
2023-05-31T08:35:43.645Z,21.86
2023-05-31T08:38:11.122Z,22.54
2023-05-31T08:40:38.656Z,22.18
2023-05-31T08:43:10.974Z,22.24
2023-05-31T08:45:38.845Z,21.92
2023-05-31T08:48:12.965Z,22.23
2023-05-31T08:50:43.240Z,21.71
2023-05-31T08:53:12.908Z,21.66
2023-05-31T08:55:41.555Z,21.43
2023-05-31T08:58:09.615Z,21.83
2023-05-31T09:00:37.797Z,21.49
2023-05-31T09:03:08.352Z,21.53
2023-05-31T09:05:35.952Z,22.82
2023-05-31T09:08:04.036Z,22.62
2023-05-31T09:10:33.130Z,22.89
2023-05-31T09:13:00.655Z,23.26
2023-05-31T09:15:29.511Z,22.80
2023-05-31T09:17:58.175Z,22.10
2023-05-31T09:20:32.706Z,22.67
2023-05-31T09:23:04.855Z,22.86
2023-05-31T09:25:45.906Z,23.08
2023-05-31T09:28:13.719Z,22.45
2023-05-31T09:30:41.413Z,22.33
2023-05-31T09:33:09.298Z,21.97
2023-05-31T09:35:36.778Z,22.82
2023-05-31T09:38:08.996Z,23.20
2023-05-31T09:40:36.439Z,23.17
2023-05-31T09:43:05.212Z,23.58
2023-05-31T09:45:32.859Z,22.96
2023-05-31T09:48:01.101Z,22.97
2023-05-31T09:50:28.700Z,22.33
2023-05-31T09:53:00.041Z,22.47
2023-05-31T09:55:41.382Z,22.34
2023-05-31T09:58:10.202Z,23.05
2023-05-31T10:00:46.559Z,22.59
2023-05-31T10:03:14.133Z,23.15
2023-05-31T10:05:41.796Z,23.01
2023-05-31T10:08:09.639Z,23.62
2023-05-31T10:10:37.140Z,23.28
2023-05-31T10:13:06.340Z,23.08
2023-05-31T10:15:37.686Z,23.03
2023-05-31T10:18:11.571Z,23.04
2023-05-31T10:20:40.942Z,23.02
2023-05-31T10:23:14.232Z,23.30
2023-05-31T10:25:48.673Z,23.33
2023-05-31T10:28:19.654Z,23.41
2023-05-31T10:30:51.712Z,23.44
2023-05-31T10:33:21.808Z,23.82
2023-05-31T10:35:51.778Z,23.64
2023-05-31T10:38:22.540Z,23.31
2023-05-31T10:40:54.880Z,23.00
2023-05-31T10:43:27.902Z,22.92
2023-05-31T10:46:02.987Z,23.55
2023-05-31T10:48:40.152Z,23.35
2023-05-31T10:51:08.135Z,24.07
2023-05-31T10:53:37.737Z,24.05
2023-05-31T10:56:07.096Z,24.03
2023-05-31T10:58:38.757Z,24.49
2023-05-31T11:01:09.492Z,23.08
2023-05-31T11:03:41.005Z,23.25
2023-05-31T11:06:10.031Z,23.66
2023-05-31T11:08:38.373Z,23.62
2023-05-31T11:11:28.779Z,23.28
2023-05-31T11:14:02.012Z,23.22
2023-05-31T11:16:32.435Z,23.73
2023-05-31T11:19:07.492Z,23.41
2023-05-31T11:21:48.559Z,23.16
2023-05-31T11:24:32.916Z,23.82
2023-05-31T11:27:01.370Z,23.46
2023-05-31T11:29:57.851Z,23.32
2023-05-31T11:32:56.636Z,23.51
2023-05-31T11:35:24.595Z,23.45
2023-05-31T11:37:52.885Z,23.23
2023-05-31T11:40:20.631Z,23.18
2023-05-31T11:42:48.288Z,24.18
2023-05-31T11:45:18.659Z,24.15
2023-05-31T11:48:01.362Z,23.63
2023-05-31T11:50:29.566Z,24.52
2023-05-31T11:53:00.064Z,24.04
2023-05-31T11:55:33.858Z,23.99
2023-05-31T11:58:02.422Z,24.02
2023-05-31T12:00:30.623Z,23.75
2023-05-31T12:03:00.329Z,24.20
2023-05-31T12:05:28.074Z,24.35
2023-05-31T12:07:57.115Z,24.78
2023-05-31T12:10:27.361Z,24.86
2023-05-31T12:12:56.795Z,24.32
2023-05-31T12:15:27.251Z,23.70
2023-05-31T12:17:54.868Z,24.19
2023-05-31T12:20:23.997Z,23.59
2023-05-31T12:22:51.456Z,24.06
2023-05-31T12:25:18.874Z,24.04
2023-05-31T12:27:46.819Z,23.96
2023-05-31T12:30:18.831Z,23.54
2023-05-31T12:32:46.618Z,23.47
2023-05-31T12:35:14.509Z,23.74
2023-05-31T12:37:44.556Z,23.84
2023-05-31T12:40:13.179Z,24.51
2023-05-31T12:42:41.090Z,24.42
2023-05-31T12:45:10.077Z,24.79
2023-05-31T12:47:38.479Z,25.17
2023-05-31T12:50:08.067Z,24.32
2023-05-31T12:52:37.166Z,24.19
2023-05-31T12:55:07.346Z,25.03
2023-05-31T12:57:34.926Z,25.02
2023-05-31T13:00:05.519Z,24.65
2023-05-31T13:02:33.007Z,24.39
2023-05-31T13:05:00.508Z,24.92
2023-05-31T13:07:28.124Z,25.75
2023-05-31T13:09:55.893Z,24.55
2023-05-31T13:12:24.663Z,24.68
2023-05-31T13:14:53.044Z,24.40
2023-05-31T13:17:20.742Z,24.66
2023-05-31T13:19:57.220Z,24.39
2023-05-31T13:22:35.766Z,23.95
2023-05-31T13:25:03.892Z,24.20
2023-05-31T13:27:32.707Z,24.63
2023-05-31T13:30:00.229Z,25.56
2023-05-31T13:32:28.841Z,24.74
2023-05-31T13:34:59.120Z,24.20
2023-05-31T13:37:28.274Z,23.82
2023-05-31T13:39:57.141Z,24.41
2023-05-31T13:42:24.956Z,24.29
2023-05-31T13:44:53.735Z,24.35
2023-05-31T13:47:21.281Z,24.29
2023-05-31T13:49:49.429Z,24.49
2023-05-31T13:52:17.290Z,24.89
2023-05-31T13:54:44.825Z,25.13
2023-05-31T13:57:12.494Z,24.74
2023-05-31T13:59:40.468Z,24.49
2023-05-31T14:02:09.575Z,24.24
2023-05-31T14:04:37.028Z,24.82
2023-05-31T14:07:04.771Z,25.61
2023-05-31T14:09:32.316Z,25.70
2023-05-31T14:11:59.824Z,25.12
2023-05-31T14:14:27.553Z,25.03
2023-05-31T14:16:55.183Z,25.36
2023-05-31T14:19:23.974Z,25.44
2023-05-31T14:21:51.420Z,24.98
2023-05-31T14:24:18.880Z,24.52
2023-05-31T14:26:46.348Z,25.33
2023-05-31T14:29:13.822Z,25.45
2023-05-31T14:31:41.352Z,25.38
2023-05-31T14:34:08.808Z,25.69
2023-05-31T14:36:44.008Z,25.05
2023-05-31T14:39:12.105Z,25.15
2023-05-31T14:41:39.555Z,25.46
2023-05-31T14:44:07.005Z,25.83
2023-05-31T14:46:34.493Z,25.65
2023-05-31T14:49:01.994Z,25.29
2023-05-31T14:51:30.926Z,26.01
2023-05-31T14:53:59.745Z,25.56
2023-05-31T14:56:27.988Z,25.96
2023-05-31T14:58:55.451Z,25.62
2023-05-31T15:01:22.913Z,25.89
2023-05-31T15:03:51.430Z,25.90
2023-05-31T15:06:19.129Z,25.92
2023-05-31T15:08:46.607Z,25.59
2023-05-31T15:11:15.394Z,25.72
2023-05-31T15:13:43.228Z,26.13
2023-05-31T15:16:10.666Z,25.30
2023-05-31T15:18:38.339Z,26.35
2023-05-31T15:21:08.007Z,26.34
2023-05-31T15:23:35.590Z,26.05
2023-05-31T15:26:03.040Z,25.58
2023-05-31T15:28:31.834Z,26.14
2023-05-31T15:31:01.136Z,26.30
2023-05-31T15:33:28.763Z,25.74
2023-05-31T15:35:56.192Z,25.39
2023-05-31T15:38:23.656Z,25.54
2023-05-31T15:40:51.138Z,25.92
2023-05-31T15:43:20.442Z,25.78
2023-05-31T15:45:49.460Z,25.87
2023-05-31T15:48:16.944Z,26.07
2023-05-31T15:50:44.681Z,25.85
2023-05-31T15:53:12.411Z,25.84
2023-05-31T15:55:40.173Z,26.05
2023-05-31T15:58:08.136Z,26.34
2023-05-31T16:00:35.677Z,26.24
2023-05-31T16:03:04.740Z,25.37
2023-05-31T16:05:32.753Z,25.31
2023-05-31T16:08:01.832Z,25.12
2023-05-31T16:10:29.842Z,24.94
2023-05-31T16:12:57.303Z,25.14
2023-05-31T16:15:25.290Z,25.16
2023-05-31T16:17:52.778Z,26.24
2023-05-31T16:20:21.624Z,26.55
2023-05-31T16:22:49.131Z,26.20
2023-05-31T16:25:16.548Z,26.22
2023-05-31T16:27:45.598Z,25.57
2023-05-31T16:30:13.698Z,25.28
2023-05-31T16:32:41.241Z,25.14
2023-05-31T16:35:09.598Z,26.02
2023-05-31T16:37:38.511Z,25.58
2023-05-31T16:40:07.230Z,26.20
2023-05-31T16:42:34.645Z,24.83
2023-05-31T16:45:02.140Z,24.91
2023-05-31T16:47:29.810Z,24.93
2023-05-31T16:49:57.262Z,24.81
2023-05-31T16:52:24.765Z,25.47
2023-05-31T16:54:53.530Z,25.22
2023-05-31T16:57:21.880Z,25.01
2023-05-31T16:59:49.332Z,25.55
2023-05-31T17:02:17.123Z,25.34
2023-05-31T17:04:44.558Z,24.66
2023-05-31T17:07:12.105Z,25.17
2023-05-31T17:09:39.619Z,25.32
2023-05-31T17:12:10.542Z,25.21
2023-05-31T17:14:37.993Z,24.87
2023-05-31T17:17:05.792Z,24.61
2023-05-31T17:19:33.534Z,24.52
2023-05-31T17:22:01.293Z,24.61
2023-05-31T17:24:28.949Z,25.27
2023-05-31T17:26:56.442Z,24.80
2023-05-31T17:29:26.960Z,24.71
2023-05-31T17:31:54.742Z,25.42
2023-05-31T17:34:22.322Z,25.03
2023-05-31T17:36:55.314Z,24.67
2023-05-31T17:39:22.759Z,24.42
2023-05-31T17:41:54.021Z,24.26
2023-05-31T17:44:21.571Z,24.45
2023-05-31T17:46:52.489Z,24.65
2023-05-31T17:49:23.009Z,25.15
2023-05-31T17:51:52.706Z,25.43
2023-05-31T17:54:24.210Z,25.36
2023-05-31T17:56:52.181Z,25.27
2023-05-31T17:59:23.346Z,24.84
2023-05-31T18:01:52.424Z,25.15
2023-05-31T18:04:20.073Z,24.75
2023-05-31T18:06:47.706Z,24.71
2023-05-31T18:09:16.063Z,24.68
2023-05-31T18:11:43.678Z,25.06
2023-05-31T18:14:11.164Z,24.77
2023-05-31T18:16:40.062Z,24.89
2023-05-31T18:19:08.875Z,24.72
2023-05-31T18:21:37.515Z,24.42
2023-05-31T18:24:05.360Z,24.59
2023-05-31T18:26:33.016Z,24.51
2023-05-31T18:29:00.560Z,24.87
2023-05-31T18:31:31.635Z,24.91
2023-05-31T18:33:59.268Z,24.18
2023-05-31T18:36:28.374Z,24.16
2023-05-31T18:39:17.841Z,24.28
2023-05-31T18:41:45.316Z,24.26
2023-05-31T18:44:12.803Z,24.31
2023-05-31T18:46:40.425Z,24.04
2023-05-31T18:49:07.878Z,24.64
2023-05-31T18:51:37.800Z,24.47
2023-05-31T18:54:05.735Z,24.10
2023-05-31T18:56:33.175Z,24.57
2023-05-31T18:59:00.633Z,24.85
2023-05-31T19:01:28.454Z,24.75
2023-05-31T19:03:56.250Z,24.44
2023-05-31T19:06:23.813Z,24.31
2023-05-31T19:08:52.961Z,24.35
2023-05-31T19:11:20.478Z,24.51
2023-05-31T19:13:48.076Z,24.50
2023-05-31T19:16:15.638Z,24.54
2023-05-31T19:18:43.191Z,24.36
2023-05-31T19:21:10.744Z,24.34
2023-05-31T19:23:38.650Z,24.36
2023-05-31T19:26:07.880Z,24.50
2023-05-31T19:28:35.407Z,24.23
2023-05-31T19:31:02.886Z,24.43
2023-05-31T19:33:30.429Z,24.31
2023-05-31T19:35:57.866Z,24.21
2023-05-31T19:38:28.975Z,23.87
2023-05-31T19:40:56.612Z,23.98
2023-05-31T19:43:25.509Z,24.05
2023-05-31T19:45:53.264Z,24.14
2023-05-31T19:48:20.792Z,24.08
2023-05-31T19:50:48.273Z,23.68
2023-05-31T19:53:15.811Z,23.87
2023-05-31T19:55:44.661Z,23.67
2023-05-31T19:58:12.369Z,23.50
2023-05-31T20:00:41.940Z,23.33
2023-05-31T20:03:09.618Z,23.43
2023-05-31T20:05:37.182Z,22.84
2023-05-31T20:08:04.926Z,23.26
2023-05-31T20:10:32.400Z,23.49
2023-05-31T20:15:45.539Z,23.52
2023-05-31T20:18:13.044Z,23.60
2023-05-31T20:20:40.639Z,23.40
2023-05-31T20:23:08.078Z,23.29
2023-05-31T20:25:35.666Z,23.26
2023-05-31T20:28:03.229Z,23.02
2023-05-31T20:30:30.769Z,22.83
2023-05-31T20:32:59.866Z,23.00
2023-05-31T20:35:34.639Z,22.97
2023-05-31T20:38:02.464Z,22.86
2023-05-31T20:40:29.990Z,22.77
2023-05-31T20:42:57.419Z,22.80
2023-05-31T20:45:24.976Z,22.82
2023-05-31T20:47:52.612Z,22.81
2023-05-31T20:50:21.528Z,22.80
2023-05-31T20:52:49.913Z,22.70
2023-05-31T20:55:18.010Z,22.63
2023-05-31T20:57:45.857Z,22.58
2023-05-31T21:00:14.260Z,22.62
2023-05-31T21:02:41.849Z,22.71
2023-05-31T21:05:09.630Z,22.68
2023-05-31T21:07:38.564Z,22.53
2023-05-31T21:10:06.892Z,22.58
2023-05-31T21:12:34.327Z,22.60
2023-05-31T21:15:01.816Z,22.51
2023-05-31T21:17:29.796Z,22.53
2023-05-31T21:19:57.371Z,22.60
2023-05-31T21:22:25.042Z,22.55
2023-05-31T21:24:55.068Z,22.49
2023-05-31T21:27:22.622Z,22.36
2023-05-31T21:29:50.067Z,22.33
2023-05-31T21:32:17.565Z,22.36
2023-05-31T21:34:45.244Z,22.31
2023-05-31T21:37:12.772Z,22.41
2023-05-31T21:39:40.202Z,22.34
2023-05-31T21:42:10.300Z,22.38
2023-05-31T21:44:37.696Z,22.35
2023-05-31T21:47:05.690Z,22.52
2023-05-31T21:49:34.618Z,22.64
2023-05-31T21:52:02.101Z,22.68
2023-05-31T21:54:29.562Z,22.77
2023-05-31T21:56:56.980Z,22.66
2023-05-31T21:59:26.051Z,22.59
2023-05-31T22:01:53.496Z,22.34
2023-05-31T22:04:21.089Z,22.14
2023-05-31T22:06:48.529Z,22.42
2023-05-31T22:09:15.986Z,22.31
2023-05-31T22:11:43.480Z,22.22
2023-05-31T22:14:11.009Z,22.39
2023-05-31T22:16:40.035Z,21.95
2023-05-31T22:19:07.686Z,22.10
2023-05-31T22:21:36.941Z,21.73
2023-05-31T22:24:04.663Z,21.55
2023-05-31T22:26:32.194Z,21.55
2023-05-31T22:28:59.782Z,21.54
2023-05-31T22:31:27.855Z,21.27
2023-05-31T22:33:56.657Z,21.67
2023-05-31T22:36:24.101Z,21.20
2023-05-31T22:38:51.599Z,21.53
2023-05-31T22:41:19.066Z,21.82
2023-05-31T22:43:46.692Z,21.94
2023-05-31T22:46:14.295Z,21.70
2023-05-31T22:48:41.797Z,21.53
2023-05-31T22:51:12.477Z,21.51
2023-05-31T22:53:40.788Z,21.64
2023-05-31T22:56:08.496Z,21.16
2023-05-31T22:58:36.112Z,21.25
2023-05-31T23:01:03.614Z,21.18
2023-05-31T23:03:31.260Z,20.81
2023-05-31T23:05:59.284Z,20.91
2023-05-31T23:08:30.424Z,20.62
2023-05-31T23:10:59.708Z,20.93
2023-05-31T23:13:28.205Z,20.59
2023-05-31T23:15:59.621Z,20.22
2023-05-31T23:18:27.446Z,19.89
2023-05-31T23:20:55.884Z,20.33
2023-05-31T23:23:23.626Z,20.40
2023-05-31T23:25:52.555Z,20.23
2023-05-31T23:28:20.148Z,20.12
2023-05-31T23:30:47.570Z,20.07
2023-05-31T23:33:17.533Z,19.84
2023-05-31T23:35:45.761Z,20.25
2023-05-31T23:38:13.347Z,20.39
2023-05-31T23:40:40.845Z,20.43
2023-05-31T23:43:09.662Z,20.21
2023-05-31T23:45:37.227Z,20.39
2023-05-31T23:48:04.961Z,19.97
2023-05-31T23:50:32.616Z,20.28
2023-05-31T23:53:00.289Z,20.00
2023-05-31T23:55:27.820Z,20.24
2023-05-31T23:57:55.394Z,20.36
